Forside
METAR-TAF:

METAR-TAF

Lufthavne :

Ted Stevens Anchorage International Airport

Anchorage, Alaska, USA

Breddekreds: 61-10-28N, længdekreds: 149-59-46W, højde: 44 m

Aktuelle vejr

Denne rapport blev lavet for 1 time og 4 minutter siden, kl. 02:53 UTC
Vind 5 kt fra vestnordvest
Temperatur 19°C
Fugtighed 64%
Tryk 1024 hPa
Sigt: 16.1 km
Nogle få skyer i en højde af 5000 ft
Nogle få skyer i en højde af 15000 ft
Spredte skyer i en højde af 25000 ft

METAR: PANC 230253Z 30005KT 10SM FEW050 FEW150 SCT250 19/12 A3024 RMK AO2 SLP239 T01940122 56017

Tid: 19:57 (03:57 UTC)

Vejrudsigter

Denne rapport blev lavet for 4 timer og 36 minutter siden, kl. 23:21 UTC
Foreløbig gælder fra 23 på 00 UTC til 24 på 06 UTC
Vind 5 kt fra varierende retninger
Sigt: 10 km
Nogle få skyer i en højde af 4000 ft
Spredte skyer i en højde af 20000 ft
Fra 24 på 0000 UTC
Vind 12 kt fra syd
Sigt: 10 km
Spredte skyer i en højde af 5000 ft
Brudte skyer i en højde af 9000 ft

TAF: PANC 222321Z 2300/2406 VRB05KT P6SM FEW040 SCT200 FM240000 17012KT P6SM SCT050 BKN090

Vejrobservationer og prognoser fra mere end 4000 lufthavne (METAR og TAF).

De gule og røde prikker repræsenterer de meteorologiske stationer.

Flyt musen over at se navnet på stationen.

Så klik over at se vejr observationer og prognoser.

At skifte det kort: Klik på de grønne knapper med et sort kors for at zoome ind; på den grønne knap med en bindestreg for at zoome ud; eller på de grønne pile for tilstødende kort.


METAR-TAF: